METAR AND TAF INFORMATION
METAR FOR UTDD
ADDS - METARS form results

(2127 UTC 20 February 2020)
Data provider http://aviationweather.gov/metar/data/
 
METAR text: UTDD 202100Z 01003MPS 340V060 9999 NSC 05/M03 Q1017 R09/D NOSIG RMK QFE694/0926
Conditions at: UTDD (DUSHANBE , TJ) observed 2100 UTC 20 February 2020
Temperature: 5.0°C (41°F)
Dewpoint: -3.0°C (27°F) [RH = 56%]
Pressure (altimeter): 30.03 inches Hg (1017.0 mb)
Winds: from the N (10 degrees) at 7 MPH (6 knots; 3.1 m/s)
Visibility: 6 or more miles (10+ km)
Ceiling: at least 12,000 feet AGL
Clouds: sky clear below 12,000 feet AGL
Weather: no significant weather observed at this time

METAR text: UTDD 202030Z 04002MPS 9999 NSC 04/M02 Q1018 R09/D NOSIG RMK QFE695/0926
Conditions at: UTDD (DUSHANBE , TJ) observed 2030 UTC 20 February 2020
Temperature: 4.0°C (39°F)
Dewpoint: -2.0°C (28°F) [RH = 65%]
Pressure (altimeter): 30.06 inches Hg (1018.0 mb)
Winds: from the NE (40 degrees) at 5 MPH (4 knots; 2.1 m/s)
Visibility: 6 or more miles (10+ km)
Ceiling: at least 12,000 feet AGL
Clouds: sky clear below 12,000 feet AGL
Weather: no significant weather observed at this time

Forecast for: UTDD (DUSHANBE , TJ)
Text: TAF UTDD 202100Z 2022/2110 VRB02MPS 6000 FEW066 SCT110
Forecast period: 2200 UTC 20 February 2020 to 1000 UTC 21 February 2020
Forecast type: FROM: standard forecast or significant change
Winds: variable direction winds at 5 MPH (4 knots; 2.1 m/s)
Visibility: 4 miles (6 km)
Ceiling: at least 12,000 feet AGL
Clouds: few clouds at 6600 feet AGL
scattered clouds at 11000 feet AGL
Weather: no significant weather forecast for this period
Text: TEMPO 2022/2107 07005MPS 3100 FU
Forecast period: 2200 UTC 20 February 2020 to 0700 UTC 21 February 2020
Forecast type: TEMPORARY: The following changes expected for less than half the time period
Winds: from the ENE (70 degrees) at 12 MPH (10 knots; 5.1 m/s)
Visibility: 1.93 miles (3.11 km)
Ceiling: unknown
Clouds: missing
Weather: FU  (smoke)

 AIRPORT MAP

 RUNWAY INFORMATION
Runway 09 Runway length 10170 ft Runway width 147 ft
Runway elevation 2575 ft Runway displaced threshold 0 ft Runway heading 90
Runway 27 Runway length 10170 ft Runway width 147 ft
Runway elevation 2543 ft Runway displaced threshold 1335 ft Runway heading 270

 AIRPORT FREQUENCIES
Type APP Name APP Frequency 127.1 MHZ
Type ATIS Name ATIS Frequency 126.2 MHZ
Type GND Name GND Frequency 121.7 MHZ
Type TWR Name TWR Frequency 119.2 MHZ

 AIRPORT NEAR NAVIGATION AIDS
Type VOR-DME Name Dushanbe Frequency 113600 KHZ
Type NDB Name Dushanbe Frequency 372 KHZ
Type NDB Name Dushanbe Frequency 420 KHZ



Powered by Virtual Airlines Manager [v2.6.2]